Time;durP1;ratioP1;P1;durP2;ratioP2;P2;SDS_P1;SDS_P2;PMS_P1;PMS_P2;Temp;Humidity;BMP_temperature;BMP_pressure;BME280_temperature;BME280_humidity;BME280_pressure;Samples;Min_cycle;Max_cycle;Signal;HPM_P1;HPM_P2
2021/07/25 00:32:29;;;;;;;34.53;31.00;;;19.80;99.90;;;;;;5131569;22;20568;-85
2021/07/25 00:34:56;;;;;;;43.20;35.07;;;20.00;99.90;;;;;;5067440;28;20456;-85
2021/07/25 00:37:24;;;;;;;35.30;31.30;;;20.10;99.90;;;;;;5062468;28;20540;-85
2021/07/25 00:39:51;;;;;;;34.30;28.97;;;20.00;99.90;;;;;;5063691;28;20514;-86
2021/07/25 00:42:18;;;;;;;32.90;29.43;;;20.10;99.90;;;;;;5081263;28;20488;-85
2021/07/25 00:44:45;;;;;;;29.60;26.50;;;20.00;99.90;;;;;;5084992;28;20437;-85
2021/07/25 00:47:12;;;;;;;36.90;31.23;;;20.10;99.90;;;;;;5079633;28;20455;-85
2021/07/25 00:49:41;;;;;;;31.20;27.70;;;20.10;99.90;;;;;;5088271;28;20437;-85
2021/07/25 00:52:09;;;;;;;28.73;25.73;;;20.00;99.90;;;;;;5082454;28;20458;-84
2021/07/25 00:54:36;;;;;;;34.27;28.67;;;19.90;99.90;;;;;;5083440;28;20499;-85
2021/07/25 00:57:05;;;;;;;32.23;29.03;;;20.00;99.90;;;;;;5084126;28;20515;-85
2021/07/25 00:59:32;;;;;;;36.97;30.30;;;19.90;99.90;;;;;;5093001;28;20520;-86
2021/07/25 01:01:59;;;;;;;31.33;28.10;;;19.90;99.90;;;;;;5086259;28;20527;-85
2021/07/25 01:04:45;;;;;;;34.03;30.40;;;19.90;99.90;;;;;;5059563;28;20460;-86
2021/07/25 01:07:23;;;;;;;37.90;33.83;;;19.90;99.90;;;;;;5060599;28;20494;-85
2021/07/25 01:09:55;;;;;;;33.93;29.83;;;19.90;99.90;;;;;;5065462;28;20449;-85
2021/07/25 01:12:29;;;;;;;35.50;30.00;;;19.90;99.90;;;;;;5065008;28;20493;-86
2021/07/25 01:14:58;;;;;;;39.10;34.07;;;20.00;99.90;;;;;;5047424;28;20780;-86
2021/07/25 01:17:30;;;;;;;40.00;34.50;;;20.00;99.90;;;;;;5066594;28;20442;-85
2021/07/25 01:19:59;;;;;;;38.00;33.73;;;19.90;99.90;;;;;;5062229;28;20498;-83
2021/07/25 01:22:28;;;;;;;43.40;37.80;;;19.90;99.90;;;;;;5056334;28;20470;-85
2021/07/25 01:24:56;;;;;;;46.20;35.47;;;19.90;99.90;;;;;;5060410;28;20449;-85
2021/07/25 01:27:31;;;;;;;47.83;39.67;;;19.90;99.90;;;;;;5064115;28;20451;-86
2021/07/25 01:30:00;;;;;;;43.90;38.43;;;19.80;99.90;;;;;;5063484;28;21053;-86
2021/07/25 01:32:29;;;;;;;52.10;44.27;;;19.80;99.90;;;;;;5061613;28;20504;-85
2021/07/25 01:35:00;;;;;;;43.67;38.87;;;19.70;99.90;;;;;;5059831;28;20872;-86
2021/07/25 01:37:29;;;;;;;45.83;38.80;;;19.60;99.90;;;;;;5055300;28;20458;-85
2021/07/25 01:39:56;;;;;;;53.33;43.23;;;19.60;99.90;;;;;;5062165;28;20428;-85
2021/07/25 01:42:28;;;;;;;54.37;46.70;;;19.60;99.90;;;;;;5051396;28;20467;-86
2021/07/25 01:44:56;;;;;;;49.20;41.73;;;19.50;99.90;;;;;;5058947;28;20480;-86
2021/07/25 01:47:23;;;;;;;53.23;44.93;;;19.50;99.90;;;;;;5066154;28;20445;-85
2021/07/25 01:49:50;;;;;;;53.57;47.33;;;19.60;99.90;;;;;;5059069;28;20467;-86
2021/07/25 01:52:19;;;;;;;71.23;54.10;;;19.60;99.90;;;;;;5061768;28;20472;-86
2021/07/25 01:54:46;;;;;;;66.03;51.17;;;19.60;99.90;;;;;;5062227;28;20439;-84
2021/07/25 01:57:13;;;;;;;66.53;52.40;;;19.60;99.90;;;;;;5066509;28;20452;-85
2021/07/25 02:00:01;;;;;;;82.93;57.73;;;19.60;99.90;;;;;;5098154;22;20522;-85
2021/07/25 02:02:28;;;;;;;72.50;52.20;;;19.40;99.90;;;;;;5116425;28;20440;-84
2021/07/25 02:04:55;;;;;;;69.10;52.63;;;19.50;99.90;;;;;;5116182;28;20452;-84
2021/07/25 02:07:23;;;;;;;70.00;54.40;;;19.50;99.90;;;;;;5101507;28;20426;-84
2021/07/25 02:09:50;;;;;;;68.60;52.40;;;19.50;99.90;;;;;;5117747;28;20432;-85
2021/07/25 02:12:18;;;;;;;67.90;52.23;;;19.60;99.90;;;;;;5109046;28;20457;-86
2021/07/25 02:14:45;;;;;;;72.40;53.80;;;19.60;99.90;;;;;;5103395;28;20437;-85
2021/07/25 02:17:12;;;;;;;66.63;51.53;;;19.60;99.90;;;;;;5106929;28;20562;-85
2021/07/25 02:19:39;;;;;;;68.00;49.90;;;19.70;99.90;;;;;;5093870;28;20444;-85
2021/07/25 02:22:06;;;;;;;72.60;53.73;;;19.60;99.90;;;;;;5108809;28;20460;-86
2021/07/25 02:24:35;;;;;;;72.53;53.57;;;19.60;99.90;;;;;;5110940;28;20440;-85
2021/07/25 02:27:02;;;;;;;67.03;51.80;;;19.60;99.90;;;;;;5107329;28;20440;-85
2021/07/25 02:29:29;;;;;;;80.73;56.03;;;19.60;99.90;;;;;;5107315;28;20440;-86
2021/07/25 02:31:56;;;;;;;58.30;46.90;;;19.50;99.90;;;;;;5103597;28;20491;-86
2021/07/25 02:34:23;;;;;;;67.60;52.07;;;19.70;99.90;;;;;;5106529;28;20479;-85
2021/07/25 02:36:50;;;;;;;68.10;50.40;;;19.60;99.90;;;;;;5106154;28;21310;-85
2021/07/25 02:39:18;;;;;;;82.70;53.60;;;19.70;99.90;;;;;;5100829;28;20456;-85
2021/07/25 02:41:46;;;;;;;54.50;44.90;;;19.60;99.90;;;;;;5112879;28;20567;-86
2021/07/25 02:44:13;;;;;;;66.13;47.53;;;19.60;99.90;;;;;;5099834;28;20456;-86
2021/07/25 02:46:40;;;;;;;57.80;48.10;;;19.70;99.90;;;;;;5101071;28;20454;-85
2021/07/25 02:49:08;;;;;;;59.47;48.07;;;19.70;99.90;;;;;;5095901;28;20441;-86
2021/07/25 02:51:35;;;;;;;65.00;48.53;;;19.70;99.90;;;;;;5091746;28;20465;-86
2021/07/25 02:54:02;;;;;;;60.43;48.20;;;19.70;99.90;;;;;;5094524;28;20471;-85
2021/07/25 02:56:29;;;;;;;61.67;48.63;;;19.70;99.90;;;;;;5086396;28;20448;-85
2021/07/25 02:58:57;;;;;;;59.17;46.90;;;19.70;99.90;;;;;;5105489;28;20932;-86
2021/07/25 03:01:24;;;;;;;66.07;49.77;;;19.70;99.90;;;;;;5098621;28;20479;-86
2021/07/25 03:03:51;;;;;;;56.13;48.63;;;19.70;99.90;;;;;;5099315;28;20441;-85
2021/07/25 03:06:18;;;;;;;57.33;47.50;;;19.70;99.90;;;;;;5097414;28;20520;-85
2021/07/25 03:08:46;;;;;;;67.43;49.63;;;19.70;99.90;;;;;;5106052;28;20425;-84
2021/07/25 03:11:13;;;;;;;63.73;44.50;;;19.60;99.90;;;;;;5096021;28;20457;-86
2021/07/25 03:13:40;;;;;;;61.93;49.20;;;19.60;99.90;;;;;;5093983;28;20857;-85
2021/07/25 03:16:10;;;;;;;55.33;45.90;;;19.70;99.90;;;;;;5096312;28;20492;-85
2021/07/25 03:18:37;;;;;;;58.37;45.60;;;19.70;99.90;;;;;;5106080;28;20439;-85
2021/07/25 03:21:05;;;;;;;53.60;44.70;;;19.70;99.90;;;;;;5099560;28;20433;-85
2021/07/25 03:23:34;;;;;;;51.23;43.13;;;19.80;99.90;;;;;;5102192;28;20441;-85
2021/07/25 03:26:01;;;;;;;56.30;43.10;;;19.80;99.90;;;;;;5101395;28;20913;-85
2021/07/25 03:28:28;;;;;;;61.67;43.90;;;19.80;99.90;;;;;;5103499;28;20468;-85
2021/07/25 03:30:55;;;;;;;60.43;46.50;;;19.80;99.90;;;;;;5102111;28;20433;-84
2021/07/25 03:33:24;;;;;;;60.40;47.77;;;19.70;99.90;;;;;;5101019;28;20484;-86
2021/07/25 03:35:51;;;;;;;51.83;42.03;;;19.60;99.90;;;;;;5091073;28;20456;-85
2021/07/25 03:38:18;;;;;;;54.13;42.63;;;19.70;99.90;;;;;;5106372;28;20450;-86
2021/07/25 03:40:46;;;;;;;53.07;42.30;;;19.70;99.90;;;;;;5096073;28;20456;-86
2021/07/25 03:43:14;;;;;;;65.73;46.50;;;19.80;99.90;;;;;;5102022;28;20437;-86
2021/07/25 03:45:43;;;;;;;61.73;47.70;;;19.70;99.90;;;;;;5095391;28;20514;-83
2021/07/25 03:48:10;;;;;;;53.93;40.93;;;19.70;99.90;;;;;;5100946;28;20452;-84
2021/07/25 03:50:41;;;;;;;68.90;47.60;;;19.70;99.90;;;;;;5096924;28;20459;-84
2021/07/25 03:53:09;;;;;;;61.47;46.00;;;19.70;99.90;;;;;;5095870;28;20437;-83
2021/07/25 03:55:37;;;;;;;56.60;42.23;;;19.70;99.90;;;;;;5106213;28;20455;-84
2021/07/25 03:58:05;;;;;;;48.10;40.03;;;19.80;99.90;;;;;;5098200;28;20465;-84
2021/07/25 04:00:32;;;;;;;62.13;43.57;;;19.80;99.90;;;;;;5097705;28;20453;-84
2021/07/25 04:02:59;;;;;;;53.50;43.60;;;19.80;99.90;;;;;;5103733;28;20494;-84
2021/07/25 04:05:26;;;;;;;56.27;43.63;;;19.70;99.90;;;;;;5095843;28;20433;-85
2021/07/25 04:07:55;;;;;;;56.93;39.77;;;19.70;99.90;;;;;;5099333;28;20444;-84
2021/07/25 04:10:23;;;;;;;50.73;41.57;;;19.70;99.90;;;;;;5105522;28;21045;-84
2021/07/25 04:12:50;;;;;;;48.70;39.17;;;19.70;99.90;;;;;;5101520;28;20469;-85
2021/07/25 04:15:17;;;;;;;49.13;36.90;;;19.70;99.90;;;;;;5102974;28;20476;-84
2021/07/25 04:17:44;;;;;;;56.30;39.07;;;19.70;99.90;;;;;;5105733;28;20445;-84
2021/07/25 04:20:11;;;;;;;48.37;36.10;;;19.70;99.90;;;;;;5097824;28;20456;-84
2021/07/25 04:22:40;;;;;;;54.23;37.30;;;19.80;99.90;;;;;;5106690;28;20460;-84
2021/07/25 04:25:09;;;;;;;42.07;36.63;;;19.80;99.90;;;;;;5097418;28;20515;-84
2021/07/25 04:27:37;;;;;;;49.50;36.77;;;19.80;99.90;;;;;;5105276;28;20441;-84
2021/07/25 04:30:04;;;;;;;43.70;36.93;;;19.90;99.90;;;;;;5101658;28;20452;-85
2021/07/25 04:32:32;;;;;;;47.60;39.57;;;20.00;99.90;;;;;;5107914;28;20470;-85
2021/07/25 04:34:59;;;;;;;52.40;38.40;;;19.90;99.90;;;;;;5105213;28;20487;-85
2021/07/25 04:37:28;;;;;;;51.20;40.87;;;20.10;99.90;;;;;;5101049;28;20439;-85
2021/07/25 04:39:56;;;;;;;40.67;36.27;;;20.40;99.90;;;;;;5100729;28;20518;-85
2021/07/25 04:42:27;;;;;;;46.63;37.97;;;20.50;99.90;;;;;;5087983;28;20475;-85
2021/07/25 04:44:59;;;;;;;43.23;36.93;;;20.50;99.90;;;;;;5097399;28;20435;-84
2021/07/25 04:47:35;;;;;;;51.17;40.03;;;20.40;99.90;;;;;;5095865;28;20464;-84
2021/07/25 04:50:06;;;;;;;46.93;37.20;;;20.40;99.90;;;;;;5087291;28;20872;-84
2021/07/25 04:52:38;;;;;;;48.63;40.30;;;20.30;99.90;;;;;;5088109;28;20544;-84
2021/07/25 04:55:08;;;;;;;50.13;41.60;;;20.20;99.90;;;;;;5099926;28;20507;-85
2021/07/25 04:57:41;;;;;;;50.03;42.60;;;20.20;99.90;;;;;;5092565;28;20456;-84
2021/07/25 05:00:10;;;;;;;49.17;42.60;;;20.20;99.90;;;;;;5090141;28;20957;-84
2021/07/25 05:02:40;;;;;;;58.80;45.73;;;20.30;99.90;;;;;;5100754;28;20859;-84
2021/07/25 05:05:08;;;;;;;61.27;44.33;;;20.20;99.90;;;;;;5098544;28;20589;-84
2021/07/25 05:07:38;;;;;;;55.77;47.80;;;20.30;99.90;;;;;;5093742;28;20451;-84
2021/07/25 05:10:07;;;;;;;72.57;51.60;;;20.30;99.90;;;;;;5096428;28;20436;-84
2021/07/25 05:12:40;;;;;;;74.73;51.90;;;20.10;99.90;;;;;;5085033;28;20523;-84
2021/07/25 05:15:14;;;;;;;75.50;55.23;;;19.90;99.90;;;;;;5098307;28;20870;-85
2021/07/25 05:17:44;;;;;;;76.47;54.20;;;19.80;99.90;;;;;;5094353;28;20444;-84
2021/07/25 05:20:15;;;;;;;65.80;51.03;;;19.90;99.90;;;;;;5089930;28;20429;-85
2021/07/25 05:22:48;;;;;;;59.57;46.17;;;20.00;99.90;;;;;;5095178;28;20822;-84
2021/07/25 05:25:18;;;;;;;62.07;48.87;;;20.00;99.90;;;;;;5109109;28;20855;-84
2021/07/25 05:27:49;;;;;;;59.17;49.17;;;20.00;99.90;;;;;;5104781;28;20452;-85
2021/07/25 05:30:18;;;;;;;59.63;51.20;;;20.10;99.90;;;;;;5094538;28;20449;-84
2021/07/25 05:32:46;;;;;;;60.30;47.80;;;20.10;99.90;;;;;;5098830;28;20497;-84
2021/07/25 05:35:14;;;;;;;58.43;48.17;;;20.20;99.90;;;;;;5102685;28;20459;-85
2021/07/25 05:37:42;;;;;;;60.50;47.30;;;20.30;99.90;;;;;;5106097;28;20445;-85
2021/07/25 05:40:10;;;;;;;54.53;44.00;;;20.50;99.90;;;;;;5108445;28;20465;-85
2021/07/25 05:42:40;;;;;;;52.73;45.73;;;20.50;99.90;;;;;;5104337;28;20467;-84
2021/07/25 05:45:10;;;;;;;55.27;42.20;;;20.70;99.90;;;;;;5105608;28;20443;-85
2021/07/25 05:47:37;;;;;;;60.87;48.30;;;20.90;99.90;;;;;;5097643;28;20442;-85
2021/07/25 05:50:06;;;;;;;47.57;40.00;;;21.10;99.90;;;;;;5112508;28;20470;-85
2021/07/25 05:52:43;;;;;;;47.30;41.87;;;21.30;99.90;;;;;;5097009;28;20471;-85
2021/07/25 05:55:11;;;;;;;52.47;38.67;;;21.50;99.90;;;;;;5099084;28;20478;-86
2021/07/25 05:57:38;;;;;;;50.47;40.80;;;21.70;99.90;;;;;;5099418;28;20444;-85
2021/07/25 06:00:08;;;;;;;46.77;38.77;;;22.40;99.90;;;;;;5098135;28;20459;-86
2021/07/25 06:02:50;;;;;;;47.30;39.90;;;23.30;99.90;;;;;;5089273;28;20463;-85
2021/07/25 06:05:17;;;;;;;49.93;43.77;;;24.30;99.90;;;;;;5089432;28;20446;-85
2021/07/25 06:07:44;;;;;;;48.50;38.77;;;24.90;99.90;;;;;;5108559;28;20459;-85
2021/07/25 06:10:13;;;;;;;46.70;40.60;;;25.80;99.90;;;;;;5102047;28;20459;-85
2021/07/25 06:12:40;;;;;;;39.97;35.60;;;26.40;99.90;;;;;;5101611;28;20468;-86
2021/07/25 06:15:10;;;;;;;52.03;38.73;;;26.50;99.90;;;;;;5094264;28;20487;-85
2021/07/25 06:17:38;;;;;;;37.40;32.73;;;26.50;99.90;;;;;;5102285;28;20436;-85
2021/07/25 06:20:06;;;;;;;48.30;36.10;;;26.20;99.90;;;;;;5100915;28;20444;-86
2021/07/25 06:22:41;;;;;;;38.67;33.70;;;26.30;99.90;;;;;;5089137;28;20453;-85
2021/07/25 06:25:10;;;;;;;40.67;35.57;;;26.90;99.90;;;;;;5088136;28;20448;-85
2021/07/25 06:27:37;;;;;;;39.37;35.10;;;27.40;99.90;;;;;;5095320;28;20440;-85
2021/07/25 06:30:05;;;;;;;38.80;34.70;;;27.70;99.90;;;;;;5096741;28;21023;-85
2021/07/25 06:32:53;;;;;;;40.10;35.17;;;27.90;99.90;;;;;;5099989;28;20548;-85
2021/07/25 06:35:20;;;;;;;34.90;31.20;;;28.40;99.30;;;;;;5084958;28;20511;-85
2021/07/25 06:37:47;;;;;;;41.80;37.30;;;27.80;99.90;;;;;;5097636;28;20444;-84
2021/07/25 06:40:15;;;;;;;42.83;36.63;;;27.20;99.90;;;;;;5097762;28;20426;-84
2021/07/25 06:42:42;;;;;;;41.33;35.93;;;26.50;99.90;;;;;;5117970;28;20452;-84
2021/07/25 06:45:10;;;;;;;40.77;36.33;;;26.40;99.90;;;;;;5113107;28;20445;-84
2021/07/25 06:47:39;;;;;;;45.37;39.77;;;27.10;99.90;;;;;;5103752;28;20445;-85
2021/07/25 06:50:07;;;;;;;43.10;37.40;;;26.50;99.90;;;;;;5099649;28;20526;-85
2021/07/25 06:52:34;;;;;;;41.57;37.07;;;25.70;99.90;;;;;;5099923;28;20468;-85
2021/07/25 06:55:01;;;;;;;49.03;38.37;;;24.90;99.90;;;;;;5095345;28;20476;-85
2021/07/25 06:57:28;;;;;;;42.67;36.40;;;24.50;99.90;;;;;;5095173;28;20447;-85
2021/07/25 06:59:55;;;;;;;41.63;32.40;;;24.80;99.90;;;;;;5098949;28;20449;-86
2021/07/25 07:02:22;;;;;;;40.70;35.27;;;25.30;99.90;;;;;;5090438;28;20476;-86
2021/07/25 07:04:50;;;;;;;44.47;35.47;;;25.70;99.90;;;;;;5086601;28;20441;-86
2021/07/25 07:07:18;;;;;;;34.50;30.80;;;25.80;99.90;;;;;;5098242;28;20539;-85
2021/07/25 07:09:45;;;;;;;40.60;36.17;;;25.60;99.90;;;;;;5094343;28;20447;-85
2021/07/25 07:12:12;;;;;;;37.87;33.80;;;25.70;99.90;;;;;;5101516;28;20475;-85
2021/07/25 07:14:39;;;;;;;44.13;36.07;;;26.00;99.90;;;;;;5098362;28;20483;-85
2021/07/25 07:17:06;;;;;;;37.50;31.93;;;25.60;99.90;;;;;;5101645;28;20474;-85
2021/07/25 07:19:33;;;;;;;42.80;32.30;;;25.50;99.90;;;;;;5099852;28;20451;-86
2021/07/25 07:22:02;;;;;;;38.03;33.60;;;25.70;99.90;;;;;;5100295;28;20468;-86
2021/07/25 07:24:29;;;;;;;37.20;32.70;;;25.60;99.90;;;;;;5092986;28;20455;-85
2021/07/25 07:26:56;;;;;;;38.13;33.00;;;25.60;99.90;;;;;;5104973;28;20912;-85
2021/07/25 07:29:23;;;;;;;36.83;32.93;;;25.80;99.90;;;;;;5095203;28;20925;-85
2021/07/25 07:31:50;;;;;;;36.03;32.07;;;25.90;99.90;;;;;;5100231;28;20456;-84
2021/07/25 07:34:17;;;;;;;37.37;33.53;;;25.00;99.90;;;;;;5097402;28;20449;-84
2021/07/25 07:36:44;;;;;;;36.13;30.77;;;25.20;99.90;;;;;;5100556;28;20936;-84
2021/07/25 07:39:12;;;;;;;35.50;29.40;;;26.40;99.90;;;;;;5098382;28;20459;-85
2021/07/25 07:41:39;;;;;;;34.67;31.03;;;26.90;99.90;;;;;;5089182;28;20814;-84
2021/07/25 07:44:06;;;;;;;32.37;29.10;;;28.30;99.90;;;;;;5097385;28;20462;-86
2021/07/25 07:46:33;;;;;;;33.00;29.53;;;29.10;97.40;;;;;;5094849;28;20458;-86
2021/07/25 07:49:00;;;;;;;31.97;28.53;;;29.50;96.60;;;;;;5090139;28;20448;-86
2021/07/25 07:51:28;;;;;;;30.40;27.07;;;30.20;95.50;;;;;;5087760;28;20976;-86
2021/07/25 07:53:56;;;;;;;31.83;28.60;;;30.80;93.80;;;;;;5101843;28;20951;-86
2021/07/25 07:56:26;;;;;;;32.97;29.50;;;31.40;92.50;;;;;;5090322;28;20473;-86
2021/07/25 07:58:53;;;;;;;31.93;28.73;;;31.60;91.30;;;;;;5089890;28;20472;-85
2021/07/25 08:01:20;;;;;;;32.23;28.53;;;31.80;91.10;;;;;;5101825;28;20463;-85
2021/07/25 08:03:47;;;;;;;25.67;23.07;;;31.70;90.70;;;;;;5097788;28;20466;-87
2021/07/25 08:06:14;;;;;;;31.20;28.07;;;32.30;90.40;;;;;;5097891;28;20944;-86
2021/07/25 08:08:41;;;;;;;30.00;26.87;;;32.00;88.80;;;;;;5081278;28;20456;-87
2021/07/25 08:11:09;;;;;;;30.30;27.27;;;32.20;90.00;;;;;;5097498;28;20481;-86
2021/07/25 08:13:37;;;;;;;27.83;24.90;;;32.70;88.40;;;;;;5087103;28;20862;-86
2021/07/25 08:16:05;;;;;;;30.80;27.50;;;32.70;87.50;;;;;;5079877;28;20484;-86
2021/07/25 08:18:32;;;;;;;28.70;25.80;;;32.90;87.90;;;;;;5080243;28;20453;-86
2021/07/25 08:20:59;;;;;;;31.20;28.03;;;33.30;86.80;;;;;;5092671;28;20452;-86
2021/07/25 08:23:26;;;;;;;34.40;27.97;;;32.60;87.60;;;;;;5090687;28;20455;-86
2021/07/25 08:25:53;;;;;;;29.73;26.83;;;31.50;89.70;;;;;;5096405;28;20446;-86
2021/07/25 08:28:21;;;;;;;31.57;26.90;;;30.90;91.40;;;;;;5093685;28;21062;-86
2021/07/25 08:30:49;;;;;;;30.90;28.00;;;30.40;91.60;;;;;;5100068;28;20925;-86
2021/07/25 08:33:16;;;;;;;32.30;26.87;;;30.40;92.10;;;;;;5082857;28;20468;-86
2021/07/25 08:35:43;;;;;;;28.90;25.87;;;31.10;91.40;;;;;;5095319;28;20502;-86
2021/07/25 08:38:11;;;;;;;29.73;26.70;;;30.90;91.20;;;;;;5098212;28;20469;-85
2021/07/25 08:40:38;;;;;;;30.10;27.00;;;30.10;92.50;;;;;;5101281;28;20441;-86
2021/07/25 08:43:08;;;;;;;31.47;28.13;;;29.50;93.30;;;;;;5107515;28;20464;-85
2021/07/25 08:45:38;;;;;;;28.07;25.03;;;28.60;95.00;;;;;;5094683;28;20432;-85
2021/07/25 08:48:15;;;;;;;25.93;23.27;;;29.30;95.70;;;;;;5108824;28;20444;-85
2021/07/25 08:50:44;;;;;;;28.17;25.33;;;29.80;93.50;;;;;;5097341;28;20463;-86
2021/07/25 08:53:16;;;;;;;25.30;22.57;;;30.10;93.20;;;;;;5103223;28;20424;-85
2021/07/25 08:55:44;;;;;;;24.60;22.10;;;30.70;92.80;;;;;;5099242;28;20505;-85
2021/07/25 08:58:12;;;;;;;27.80;25.00;;;31.10;91.00;;;;;;5095064;28;20946;-85
2021/07/25 09:00:40;;;;;;;22.13;19.83;;;30.80;91.50;;;;;;5096662;28;20839;-85
2021/07/25 09:03:10;;;;;;;24.00;21.73;;;31.40;91.40;;;;;;5096169;28;20483;-85
2021/07/25 09:05:37;;;;;;;22.50;20.10;;;32.00;89.80;;;;;;5100028;28;20442;-85
2021/07/25 09:08:06;;;;;;;21.83;19.03;;;32.40;87.70;;;;;;5086779;28;20441;-85
2021/07/25 09:10:33;;;;;;;19.60;17.63;;;32.80;86.40;;;;;;5099517;28;20436;-84
2021/07/25 09:13:00;;;;;;;21.63;19.07;;;33.30;83.60;;;;;;5095313;28;20867;-85
2021/07/25 09:15:29;;;;;;;21.63;19.33;;;33.60;83.50;;;;;;5100197;28;20474;-85
2021/07/25 09:17:58;;;;;;;19.90;17.93;;;33.90;81.40;;;;;;5096203;28;20444;-84
2021/07/25 09:20:28;;;;;;;18.10;16.23;;;31.90;84.10;;;;;;5093825;28;20444;-85
2021/07/25 09:23:13;;;;;;;18.10;15.93;;;31.20;88.00;;;;;;5100116;28;20495;-84
2021/07/25 09:25:49;;;;;;;19.60;17.00;;;31.80;86.80;;;;;;5091832;28;20440;-85
2021/07/25 09:28:25;;;;;;;18.10;16.40;;;32.20;87.60;;;;;;5099796;28;20547;-85
2021/07/25 09:30:53;;;;;;;17.60;15.90;;;31.70;87.30;;;;;;5099416;28;20454;-84
2021/07/25 09:33:30;;;;;;;17.13;15.37;;;31.60;86.90;;;;;;5089364;28;20441;-86
2021/07/25 09:36:23;;;;;;;20.93;18.40;;;31.20;87.20;;;;;;5088989;28;20487;-85
2021/07/25 09:38:51;;;;;;;17.23;15.10;;;30.20;89.10;;;;;;5093723;28;20445;-85
2021/07/25 09:41:24;;;;;;;15.47;13.83;;;30.10;90.40;;;;;;5108575;28;20954;-86
2021/07/25 09:44:09;;;;;;;16.17;14.67;;;31.00;90.00;;;;;;5095809;28;20441;-85
2021/07/25 09:46:45;;;;;;;16.37;14.83;;;31.10;87.90;;;;;;5099584;28;20482;-86
2021/07/25 09:49:15;;;;;;;18.70;14.73;;;31.40;87.60;;;;;;5101568;28;20458;-85
2021/07/25 09:52:11;;;;;;;17.33;14.90;;;31.40;86.40;;;;;;5099078;28;20468;-86
2021/07/25 09:54:40;;;;;;;17.47;15.73;;;31.50;85.80;;;;;;5103570;28;20428;-84
2021/07/25 09:57:29;;;;;;;17.67;15.83;;;31.10;86.10;;;;;;5108524;28;20475;-85
2021/07/25 10:00:08;;;;;;;16.37;14.87;;;30.40;89.40;;;;;;5103906;28;20448;-85
2021/07/25 10:02:38;;;;;;;15.20;13.63;;;29.70;90.50;;;;;;5101063;28;20473;-85
2021/07/25 10:08:33;;;;;;;13.20;12.00;;;29.90;90.30;;;;;;5063286;28;20430;-85
2021/07/25 10:11:01;;;;;;;10.97;9.70;;;29.70;90.30;;;;;;5100838;28;20440;-85
2021/07/25 10:13:29;;;;;;;12.10;10.90;;;30.50;86.60;;;;;;5100749;28;20452;-85
2021/07/25 10:15:57;;;;;;;10.57;9.53;;;30.50;86.80;;;;;;5104843;28;20490;-85
2021/07/25 10:22:25;;;;;;;11.43;10.43;;;31.10;85.90;;;;;;5101342;28;20468;-86
2021/07/25 10:29:09;;;;;;;11.50;7.83;;;32.30;82.70;;;;;;4996026;28;20532;-85
2021/07/25 10:39:03;;;;;;;7.87;6.77;;;32.10;80.30;;;;;;4963972;28;20480;-85
2021/07/25 10:41:36;;;;;;;8.07;6.07;;;32.00;78.60;;;;;;4929665;28;20516;-87
2021/07/25 10:47:26;;;;;;;9.90;7.47;;;31.50;80.00;;;;;;5092453;28;20449;-85
2021/07/25 10:50:08;;;;;;;7.67;6.97;;;31.10;80.80;;;;;;5098852;28;20539;-85
2021/07/25 10:53:02;;;;;;;10.47;8.20;;;30.30;83.90;;;;;;5083899;28;20465;-86
2021/07/25 10:55:49;;;;;;;9.67;8.10;;;29.90;86.20;;;;;;5092203;28;20571;-85
2021/07/25 10:58:22;;;;;;;9.17;8.33;;;30.00;87.00;;;;;;5102765;28;20459;-85
2021/07/25 11:00:54;;;;;;;9.33;8.23;;;30.10;86.70;;;;;;5112884;28;20571;-87
2021/07/25 11:03:45;;;;;;;8.50;7.40;;;30.40;85.10;;;;;;5097315;28;20437;-84
2021/07/25 11:06:18;;;;;;;9.57;8.67;;;30.40;84.70;;;;;;5111886;28;20500;-85
2021/07/25 11:08:47;;;;;;;12.93;8.27;;;30.60;85.10;;;;;;5106597;28;20508;-86
2021/07/25 11:11:48;;;;;;;11.93;10.70;;;30.70;84.60;;;;;;5112239;28;20453;-85
2021/07/25 11:15:08;;;;;;;11.67;10.20;;;30.80;85.20;;;;;;5103889;28;20456;-85
2021/07/25 11:17:55;;;;;;;14.90;13.33;;;30.70;83.60;;;;;;5102452;28;20447;-86
2021/07/25 11:20:36;;;;;;;7.63;6.83;;;30.50;84.70;;;;;;5095389;28;20450;-86
2021/07/25 11:23:10;;;;;;;8.30;7.40;;;29.90;84.70;;;;;;5093389;28;20474;-86
2021/07/25 11:25:39;;;;;;;8.67;7.87;;;29.80;84.30;;;;;;5100448;28;20440;-86
2021/07/25 11:28:07;;;;;;;8.73;7.87;;;29.70;85.00;;;;;;5096584;28;20433;-85
2021/07/25 11:31:07;;;;;;;8.10;7.07;;;29.70;85.70;;;;;;5096934;28;20540;-86
2021/07/25 11:34:03;;;;;;;8.00;7.20;;;29.50;83.50;;;;;;5086175;28;20479;-87
2021/07/25 11:36:30;;;;;;;8.50;7.70;;;29.60;84.60;;;;;;5050920;28;20492;-86
2021/07/25 11:39:00;;;;;;;8.07;7.27;;;29.30;85.20;;;;;;5102420;28;20433;-85
2021/07/25 11:41:34;;;;;;;9.10;7.37;;;29.50;85.40;;;;;;5102417;28;20464;-85
2021/07/25 11:44:04;;;;;;;15.73;8.20;;;29.20;85.40;;;;;;5104361;28;20448;-83
2021/07/25 11:46:39;;;;;;;8.50;7.17;;;28.90;86.50;;;;;;5105025;28;20945;-85
2021/07/25 11:49:18;;;;;;;8.00;7.20;;;29.00;88.20;;;;;;5105111;28;20446;-86
2021/07/25 11:52:00;;;;;;;7.40;6.70;;;29.00;87.70;;;;;;5098115;28;20471;-85
2021/07/25 11:54:29;;;;;;;8.10;7.30;;;29.30;87.20;;;;;;5093987;28;20452;-86
2021/07/25 11:57:07;;;;;;;8.20;7.30;;;29.40;87.10;;;;;;5103899;28;20487;-86
2021/07/25 11:59:36;;;;;;;8.40;7.57;;;29.50;85.50;;;;;;5092893;28;20451;-85
2021/07/25 12:02:05;;;;;;;8.07;7.23;;;29.40;86.10;;;;;;5098298;28;20460;-85
2021/07/25 12:04:34;;;;;;;9.40;7.83;;;29.60;86.10;;;;;;5110793;28;20496;-85
2021/07/25 12:07:04;;;;;;;7.83;7.03;;;29.50;84.90;;;;;;5112488;28;20436;-83
2021/07/25 12:09:31;;;;;;;8.10;7.40;;;28.90;86.40;;;;;;5097547;28;20444;-82
2021/07/25 12:12:04;;;;;;;8.50;7.70;;;28.80;87.20;;;;;;5095134;28;20468;-85
2021/07/25 12:14:38;;;;;;;8.97;7.50;;;28.40;88.40;;;;;;5093010;28;20443;-85
2021/07/25 12:17:07;;;;;;;9.13;7.57;;;28.80;89.00;;;;;;5105951;28;20476;-84
2021/07/25 12:19:38;;;;;;;9.90;7.80;;;28.80;88.40;;;;;;5092748;28;20823;-85
2021/07/25 12:22:19;;;;;;;9.80;8.50;;;28.60;88.30;;;;;;5105338;28;20488;-85
2021/07/25 12:24:48;;;;;;;9.23;8.03;;;28.60;89.50;;;;;;5105467;28;20448;-84
2021/07/25 12:27:27;;;;;;;9.07;8.17;;;28.90;88.30;;;;;;5099722;28;20861;-85
2021/07/25 12:30:07;;;;;;;11.30;9.47;;;29.00;88.90;;;;;;5106282;28;20448;-85
2021/07/25 12:32:34;;;;;;;8.83;8.03;;;28.90;89.60;;;;;;5097848;28;20467;-84
2021/07/25 12:35:24;;;;;;;8.63;7.50;;;28.90;89.40;;;;;;5104652;28;20445;-86
2021/07/25 12:38:00;;;;;;;8.10;6.93;;;28.90;90.00;;;;;;5097250;28;20481;-86
2021/07/25 12:40:34;;;;;;;10.57;9.27;;;28.80;89.20;;;;;;5092349;28;20446;-86
2021/07/25 12:43:10;;;;;;;8.73;7.83;;;28.70;89.50;;;;;;5103861;28;20476;-85
2021/07/25 12:49:18;;;;;;;8.60;7.70;;;28.60;90.70;;;;;;5094405;28;20424;-86
2021/07/25 12:51:47;;;;;;;8.27;7.47;;;28.90;90.30;;;;;;5107744;28;20452;-85
2021/07/25 12:54:15;;;;;;;9.50;8.63;;;29.50;89.60;;;;;;5094039;28;20453;-85
2021/07/25 12:56:42;;;;;;;12.47;11.27;;;29.70;88.90;;;;;;5104009;28;20573;-85
2021/07/25 12:59:14;;;;;;;10.83;9.07;;;29.80;88.20;;;;;;5104790;28;20515;-85
2021/07/25 13:04:34;;;;;;;8.10;7.33;;;29.90;87.40;;;;;;5111916;28;20404;-86
2021/07/25 13:07:06;;;;;;;8.60;7.67;;;29.80;87.20;;;;;;5095811;28;20445;-85
2021/07/25 13:09:33;;;;;;;9.20;8.40;;;30.30;86.60;;;;;;5105396;28;20432;-85
2021/07/25 13:12:00;;;;;;;7.13;6.43;;;30.40;87.20;;;;;;5114698;28;20468;-85
2021/07/25 13:14:34;;;;;;;9.93;8.93;;;30.20;86.20;;;;;;5103865;28;20431;-84
2021/07/25 13:17:01;;;;;;;8.13;7.43;;;30.10;86.80;;;;;;5114277;28;20460;-85
2021/07/25 13:19:30;;;;;;;8.47;7.70;;;29.70;86.90;;;;;;5115033;28;20473;-84
2021/07/25 13:21:57;;;;;;;9.50;6.40;;;29.50;85.30;;;;;;5112016;28;20452;-86
2021/07/25 13:24:26;;;;;;;7.27;6.47;;;29.40;85.60;;;;;;5098887;28;20506;-85
2021/07/25 13:26:54;;;;;;;7.97;7.17;;;29.40;86.20;;;;;;5111288;28;20703;-85
2021/07/25 13:29:21;;;;;;;8.50;7.60;;;29.40;86.20;;;;;;5110430;28;20445;-84
2021/07/25 13:31:48;;;;;;;7.23;6.63;;;29.40;85.60;;;;;;5104316;28;20490;-85
2021/07/25 13:34:16;;;;;;;12.43;7.00;;;29.30;86.40;;;;;;5110579;28;20440;-84
2021/07/25 13:36:43;;;;;;;7.90;7.07;;;29.30;85.20;;;;;;5095741;28;20546;-84
2021/07/25 13:42:05;;;;;;;10.03;8.60;;;29.10;86.50;;;;;;5101864;28;20468;-86
2021/07/25 13:44:35;;;;;;;9.07;8.13;;;29.40;87.70;;;;;;5100932;28;20456;-85
2021/07/25 13:47:05;;;;;;;8.50;7.70;;;29.50;87.00;;;;;;5101761;28;20480;-85
2021/07/25 13:49:40;;;;;;;9.20;7.70;;;29.50;87.50;;;;;;5095098;28;20445;-84